Weather observations for the past three days for
Morris, Morris Municipal Airport
Metric (Imperial)
Date Time (cdt) Wind (kph) Vis. (km) Weather Sky Cond. Temperature (ºC) Relative Humidity Wind Chill (°C) Heat Index (°C) Pressure Precipitation (cm)
Air Dwpt 6 hour altimeter (cm) sea level (mb) 1 hr 3 hr 6 hr
Max. Min.
10 11:55 N 24 G 33 16.09 Fair CLR 13 -3 33% 76.61 0.0
10 11:35 N 17 G 35 16.09 A Few Clouds FEW055 FEW070 12 -3 35% 76.61 0.0
10 11:15 N 24 G 39 16.09 Fair CLR 12 -3 35% 76.61 0.0
10 10:55 N 15 G 33 16.09 Fair CLR 12 -3 35% 76.58 0.0
10 10:35 N 24 G 37 16.09 Fair CLR 12 -3 35% 76.58 0.0
10 10:15 N 24 16.09 Fair CLR 11 -3 38% 76.58 0.0
10 09:55 NE 19 G 30 16.09 Fair CLR 11 -2 41% 76.58 0.0
10 09:35 NE 22 G 33 16.09 Fair CLR 10 -1 47% 7 76.56 0.0
10 09:15 N 28 16.09 Fair CLR 10 -2 43% 7 76.56 0.0
10 08:55 NE 24 G 35 16.09 Fair CLR 10 -1 47% 7 76.53 0.0
10 08:35 N 20 16.09 Fair CLR 10 -1 47% 8 76.5 0.0
10 08:15 NE 19 16.09 Fair CLR 9 -1 50% 7 76.5 0.0
10 07:55 N 17 16.09 Fair CLR 9 -1 50% 7 76.48 0.0
10 07:35 N 13 16.09 Fair CLR 7 0 61% 5 76.48 0.0
10 07:15 N 13 16.09 Fair CLR 6 0 66% 4 76.45 0.0
10 06:55 NE 13 16.09 Fair CLR 4 -1 70% 1 76.43 0.0
10 06:35 NE 13 16.09 Fair CLR 3 -2 70% 0 76.4 0.0
10 06:15 N 11 16.09 Fair CLR 3 -2 70% 0 76.4 0.0
10 05:55 N 13 16.09 Fair CLR 4 -2 65% 1 76.38 0.0
10 05:35 N 13 16.09 A Few Clouds FEW085 4 -2 65% 1 76.35 0.0
10 05:15 NW 11 16.09 Mostly Cloudy FEW070 BKN085 5 -1 66% 3 76.33 0.0
10 04:55 NW 9 16.09 Overcast OVC080 5 -1 66% 3 76.3 0.0
10 04:35 NW 9 16.09 Overcast OVC080 6 -1 61% 4 76.3 0.0
10 04:15 W 7 16.09 Overcast OVC080 6 -1 61% 5 76.28 0.0
10 03:55 W 9 16.09 Overcast FEW075 OVC085 6 -1 61% 4 76.25 0.0
10 03:35 W 7 16.09 Overcast FEW075 OVC085 7 -2 53% 6 76.25 0.0
10 03:15 W 7 16.09 Overcast BKN080 OVC090 7 -2 53% 6 76.23 0.0
10 02:55 NW 6 16.09 Overcast OVC085 7 -2 53% 76.23 0.0
10 02:35 W 13 16.09 Overcast OVC085 7 -2 53% 5 76.2 0.0
10 02:15 SW 11 16.09 Overcast OVC085 7 -1 57% 5 76.2 0.0
10 01:55 W 9 16.09 Overcast FEW070 BKN080 OVC085 8 -2 50% 7 76.23 0.0
10 01:35 NW 7 16.09 Overcast FEW060 BKN075 OVC085 7 -1 57% 6 76.23 0.0
10 01:15 W 7 16.09 Overcast FEW060 SCT075 OVC085 8 0 57% 7 76.23 0.0
10 00:55 W 7 16.09 Overcast SCT075 OVC085 8 -2 50% 7 76.2 0.0
10 00:35 W 7 16.09 Overcast BKN075 OVC085 8 -2 50% 7 76.2 0.0
10 00:15 W 7 16.09 Overcast SCT075 OVC085 8 -2 50% 7 76.17 0.0
09 23:55 W 7 16.09 Overcast BKN075 OVC085 8 -1 53% 7 76.17 0.0
09 23:35 W 6 16.09 Overcast BKN075 OVC085 8 -2 50% 76.17 0.0
09 23:15 W 6 16.09 Overcast OVC080 8 -2 50% 76.17 0.0
09 22:55 W 6 16.09 Overcast OVC080 9 -2 46% 76.17 0.0
09 22:35 Calm 16.09 Overcast OVC075 9 -4 40% 76.15 0.0
09 22:15 Calm 16.09 Overcast OVC080 9 -4 40% 76.15 0.0
09 21:55 N 6 16.09 Overcast OVC080 10 -5 35% 76.15 0.0
09 21:35 N 9 16.09 Mostly Cloudy SCT075 BKN085 9 -5 37% 8 76.12 0.0
09 21:15 N 13 16.09 Partly Cloudy SCT080 10 -5 35% 8 76.1 0.0
09 20:55 N 13 16.09 Mostly Cloudy BKN080 11 -5 32% 76.07 0.0
09 20:35 N 22 16.09 Mostly Cloudy BKN080 12 -5 30% 76.05 0.0
09 20:15 NW 17 16.09 Partly Cloudy SCT080 12 -5 30% 76.02 0.0
09 19:55 N 24 G 35 16.09 A Few Clouds FEW080 13 -5 28% 76.02 0.0
09 19:35 N 22 G 33 16.09 A Few Clouds FEW080 13 -6 26% 76 0.0
09 19:15 N 24 G 39 16.09 A Few Clouds FEW075 13 -6 26% 76 0.0
09 18:55 N 28 G 43 16.09 A Few Clouds FEW075 14 -6 25% 75.97 0.0
09 18:35 NW 22 G 37 16.09 Fair CLR 14 -5 27% 75.97 0.0
09 18:15 N 33 G 46 16.09 A Few Clouds and Breezy FEW075 14 -6 25% 75.95 0.0
09 17:55 N 33 G 50 16.09 Partly Cloudy and Breezy SCT075 15 -5 25% 75.95 0.0
09 17:35 N 33 G 43 16.09 A Few Clouds and Breezy FEW075 15 -5 25% 75.92 0.0
09 17:15 N 30 G 54 16.09 A Few Clouds FEW070 15 -5 25% 75.92 0.0
09 16:55 N 31 G 50 16.09 A Few Clouds FEW070 15 -4 27% 75.92 0.0
09 16:35 N 24 G 44 16.09 A Few Clouds FEW070 15 -4 27% 75.92 0.0
09 16:15 NW 28 G 48 16.09 A Few Clouds FEW070 15 -4 27% 75.92 0.0
09 15:55 NW 30 G 50 16.09 Fair CLR 15 -4 27% 75.92 0.0
09 15:35 NW 30 G 48 16.09 Fair CLR 15 -4 27% 75.92 0.0
09 15:15 NW 39 16.09 Fair and Breezy CLR 14 -4 29% 75.92 0.0
09 14:55 N 43 G 54 16.09 Fair and Windy CLR 14 -3 31% 75.92 0.0
09 14:35 NW 37 G 50 16.09 Fair and Breezy CLR 14 -3 31% 75.92 0.0
09 14:15 NW 33 G 50 16.09 Fair and Breezy CLR 14 -3 31% 75.9 0.0
09 13:55 N 46 16.09 Fair and Windy CLR 14 -3 31% 75.9 0.0
09 13:35 N 41 G 54 16.09 Fair and Breezy CLR 13 -3 33% 75.9 0.0
09 13:15 N 39 G 54 16.09 Fair and Breezy CLR 13 -3 33% 75.87 0.0
09 12:55 N 43 G 54 16.09 Fair and Windy CLR 13 -3 33% 75.87 0.0
09 12:35 NW 41 G 52 16.09 Fair and Breezy CLR 13 -3 33% 75.84 0.0
09 12:15 NW 44 G 57 16.09 Fair and Windy CLR 12 -3 35% 75.84 0.0
09 11:55 NW 31 G 52 16.09 Fair CLR 12 -2 38% 75.84 0.0
09 11:35 N 33 G 46 16.09 Fair and Breezy CLR 12 -2 38% 75.82 0.0
09 11:15 N 39 16.09 Fair and Breezy CLR 12 -2 38% 75.79 0.0
09 10:55 N 39 G 50 16.09 Fair and Breezy CLR 12 -3 35% 75.79 0.0
09 10:35 NW 37 G 52 16.09 Fair and Breezy CLR 11 -2 41% 75.77 0.0
09 10:15 N 31 G 43 16.09 Fair CLR 11 0 47% 75.74 0.0
09 09:55 N 37 16.09 Fair and Breezy CLR 11 0 47% 75.72 0.0
09 09:35 N 30 16.09 Fair CLR 10 2 58% 7 75.69 0.0
09 09:15 N 33 G 44 16.09 Fair and Breezy CLR 10 2 58% 7 75.69 0.0
09 08:55 N 31 16.09 Fair CLR 9 4 71% 5 75.67 0.0
09 08:35 NW 30 16.09 Fair CLR 8 5 82% 4 75.64 0.0
09 08:15 N 31 16.09 Fair CLR 8 6 87% 4 75.62 0.0
09 07:55 NW 28 16.09 Fair CLR 7 7 100% 3 75.62 0.0
09 07:35 NW 26 16.09 Fair CLR 7 7 100% 3 75.59 0.0
09 07:15 NW 19 16.09 Fair CLR 6 6 100% 3 75.57 0.0
09 06:55 NW 15 16.09 Fair CLR 6 6 100% 3 75.51 0.0
09 06:35 NW 19 12.87 Fair CLR 5 5 100% 2 75.49 0.0
09 06:15 NW 15 11.27 Fair CLR 5 5 100% 2 75.46 0.0
09 05:55 NW 19 11.27 Fair CLR 6 6 100% 3 75.44 0.0
09 05:35 NW 20 14.48 Partly Cloudy SCT006 6 6 100% 3 75.44 0.0
09 05:15 NW 22 G 35 16.09 Overcast OVC007 8 8 100% 5 75.41 0.0
09 04:55 NW 33 16.09 Overcast and Breezy BKN008 OVC050 8 8 100% 4 75.39 0.0
09 04:35 NW 26 16.09 Overcast FEW009 OVC055 8 8 100% 5 75.36 0.0
09 04:15 NW 22 16.09 Mostly Cloudy BKN055 BKN080 BKN120 9 9 100% 6 75.34 0.0
09 03:55 NW 22 16.09 Mostly Cloudy SCT049 BKN065 BKN075 9 9 100% 6 75.31 0.0
09 03:35 NW 20 16.09 Mostly Cloudy SCT049 BKN055 BKN065 10 9 94% 8 75.26 0.0
09 03:15 W 19 16.09 Mostly Cloudy FEW016 SCT044 BKN060 10 9 94% 8 75.23 0.0
09 02:55 NW 22 G 44 8.05 Light Rain Fog/Mist FEW016 SCT040 BKN055 10 9 94% 7 75.23 0.0
09 02:35 N 17 16.09 Overcast FEW044 BKN055 OVC070 10 8 88% 8 75.26 0.0
09 02:15 N 31 G 43 16.09 Overcast SCT055 OVC070 10 7 82% 7 75.23 0.0
09 01:55 N 30 16.09 Overcast BKN075 OVC090 11 7 77% 75.23 0.0
09 01:35 N 26 16.09 Overcast BKN080 OVC095 11 7 77% 75.23 0.0
09 01:15 N 30 16.09 Overcast SCT065 BKN075 OVC085 11 6 72% 75.21 0.0
09 00:55 N 20 16.09 Overcast BKN065 BKN075 OVC085 12 6 67% 75.21 0.0
09 00:35 N 31 G 44 16.09 Overcast FEW037 FEW050 OVC065 13 4 55% 75.23 0.0
09 00:15 NW 17 16.09 Overcast FEW036 BKN060 OVC070 12 0 44% 75.23 0.0
08 23:55 NW 7 16.09 Overcast FEW055 OVC070 11 0 47% 75.21 0.0
08 23:35 SW 13 16.09 Mostly Cloudy SCT080 BKN100 BKN110 12 0 44% 75.18 0.0
08 23:15 SW 9 16.09 A Few Clouds FEW120 10 -1 47% 9 75.16 0.0
08 22:55 SW 11 16.09 A Few Clouds FEW100 10 -1 47% 9 75.18 0.0
08 22:35 SW 11 16.09 A Few Clouds FEW100 11 -2 41% 75.21 0.0
08 22:15 SW 9 16.09 Fair CLR 11 -1 44% 75.21 0.0
08 21:55 SW 11 16.09 Fair CLR 11 -1 44% 75.23 0.0
08 21:35 W 7 16.09 Fair CLR 12 -1 41% 75.23 0.0
08 21:15 W 9 16.09 Fair CLR 13 -2 36% 75.23 0.0
08 20:55 NW 11 16.09 Fair CLR 14 -2 33% 75.23 0.0
08 20:35 NW 13 16.09 Fair CLR 15 -1 34% 75.23 0.0
08 20:15 NW 15 16.09 Fair CLR 17 -2 27% 75.23 0.0
08 19:55 NW 24 16.09 Fair CLR 18 -2 26% 75.23 0.0
08 19:35 NW 30 G 43 16.09 Fair CLR 18 -2 26% 75.26 0.0
08 19:15 NW 28 G 41 16.09 Fair CLR 19 -2 24% 75.26 0.0
08 18:55 NW 39 G 52 16.09 Fair and Breezy CLR 19 -3 22% 75.23 0.0
08 18:35 NW 44 G 59 16.09 Fair and Windy CLR 20 -3 21% 75.23 0.0
08 18:15 NW 44 16.09 Fair and Windy CLR 20 -3 21% 75.23 0.0
08 17:55 NW 33 G 57 16.09 Fair and Breezy CLR 20 -3 21% 75.23 0.0
08 17:35 NW 41 G 59 16.09 Fair and Breezy CLR 21 -3 20% 75.23 0.0
08 17:15 NW 39 G 57 16.09 Fair and Breezy CLR 22 -3 19% 75.21 0.0
08 16:55 NW 43 G 56 16.09 Fair and Windy CLR 22 -4 17% 75.21 0.0
08 16:35 NW 44 G 57 16.09 A Few Clouds and Windy FEW100 22 -3 19% 75.18 0.0
08 16:15 NW 44 G 59 16.09 A Few Clouds and Windy FEW100 22 -4 17% 75.18 0.0
08 15:55 NW 31 G 50 16.09 Fair CLR 22 -4 17% 75.18 0.0
08 15:35 NW 35 G 52 16.09 A Few Clouds and Breezy FEW095 22 -3 19% 75.18 0.0
08 15:15 NW 37 G 65 12.87 Partly Cloudy and Breezy SCT095 23 -4 16% 75.21 0.0
08 14:55 NW 37 G 57 16.09 Partly Cloudy and Breezy SCT095 22 -3 19% 75.21 0.0
08 14:35 NW 28 G 48 16.09 A Few Clouds FEW095 21 -3 20% 75.23 0.0
08 14:15 NW 35 G 46 16.09 Partly Cloudy and Breezy SCT090 22 -3 19% 75.23 0.0
08 13:55 W 26 G 56 16.09 Partly Cloudy SCT090 21 -3 20% 75.23 0.0
08 13:35 NW 30 16.09 Mostly Cloudy BKN090 21 -3 20% 75.26 0.0
08 13:15 W 31 G 50 16.09 Mostly Cloudy BKN095 20 -4 20% 75.26 0.0
08 12:55 NW 24 16.09 Partly Cloudy SCT095 SCT110 20 -4 20% 75.29 0.0
08 12:35 NW 19 G 30 16.09 Fair CLR 20 -3 21% 75.31 0.0
08 12:15 NW 22 16.09 Fair CLR 20 -3 21% 75.34 0.0
08 11:55 W 15 G 31 16.09 A Few Clouds FEW110 19 -3 22% 75.36 0.0
08 11:35 W 19 16.09 Partly Cloudy SCT110 19 -2 24% 75.39 0.0
08 11:15 W 17 G 28 16.09 Mostly Cloudy BKN110 18 -3 24% 75.39 0.0
08 10:55 W 19 16.09 Mostly Cloudy BKN110 17 -4 24% 75.39 0.0
08 10:35 W 19 16.09 Mostly Cloudy BKN110 18 -4 22% 75.41 0.0
08 10:15 W 17 16.09 Mostly Cloudy BKN110 16 -4 25% 75.44 0.0
08 09:55 NW 11 16.09 A Few Clouds FEW110 16 -3 27% 75.44 0.0
08 09:35 NW 9 16.09 A Few Clouds FEW110 14 -2 33% 75.46 0.0
08 09:15 Vrbl 7 16.09 Fair CLR 13 -1 38% 75.49 0.0
08 08:55 NW 11 16.09 Fair CLR 11 -1 44% 75.49 0.0
08 08:35 NW 11 16.09 Fair CLR 11 -1 44% 75.51 0.0
08 08:15 W 11 16.09 Partly Cloudy SCT110 10 -1 47% 9 75.51 0.0
08 07:55 W 11 16.09 Mostly Cloudy BKN090 BKN110 8 -1 53% 6 75.51 0.0
08 07:35 W 11 16.09 Overcast OVC090 7 -1 57% 5 75.51 0.0
08 07:15 W 9 16.09 Overcast OVC090 6 -1 61% 4 75.51 0.0
08 06:55 SW 6 16.09 Overcast FEW080 OVC090 5 -1 66% 75.51 0.0
08 06:35 SW 7 16.09 Overcast FEW080 OVC095 5 -2 61% 4 75.51 0.0
08 06:15 W 11 16.09 Overcast OVC095 4 -2 65% 2 75.51 0.0
08 05:55 W 9 16.09 Overcast OVC100 4 -3 61% 2 75.49 0.0
08 05:35 Calm 16.09 Mostly Cloudy BKN100 4 -4 56% 75.49 0.0
08 05:15 SW 7 16.09 Mostly Cloudy BKN095 3 -3 65% 1 75.49 0.0
08 04:55 SW 9 16.09 Partly Cloudy SCT090 3 -4 60% 1 75.49 0.0
08 04:35 S 7 16.09 Fair CLR 4 -4 56% 2 75.51 0.0
08 04:15 S 6 16.09 Fair CLR 6 -4 49% 75.51 0.0
08 03:55 Calm 16.09 Fair CLR 6 -4 49% 75.51 0.0
08 03:35 Calm 16.09 Fair CLR 4 -4 56% 75.51 0.0
08 03:15 W 7 16.09 Fair CLR 6 -4 49% 5 75.54 0.0
08 02:55 Calm 16.09 Fair CLR 7 -3 49% 75.54 0.0
08 02:35 SW 6 G 19 16.09 Fair CLR 7 -3 49% 75.54 0.0
08 02:15 SW 11 16.09 Fair CLR 7 -3 49% 5 75.54 0.0
08 01:55 SW 9 16.09 Fair CLR 7 -4 46% 5 75.54 0.0
08 01:35 SW 11 16.09 Fair CLR 6 -4 49% 4 75.57 0.0
08 01:15 SW 11 16.09 Fair CLR 6 -4 49% 4 75.57 0.0
08 00:55 SW 9 16.09 Fair CLR 6 -4 49% 4 75.57 0.0
08 00:35 SW 7 16.09 Fair CLR 5 -3 57% 4 75.57 0.0
08 00:15 SW 7 16.09 Fair CLR 6 -4 49% 5 75.59 0.0
07 23:55 SW 6 16.09 Fair CLR 6 -5 46% 75.59 0.0
07 23:35 W 7 16.09 Fair CLR 7 -4 46% 6 75.59 0.0
07 23:15 W 6 16.09 Fair CLR 8 -4 43% 75.62 0.0
07 22:55 NW 7 16.09 Fair CLR 9 -4 40% 8 75.62 0.0
07 22:35 W 6 16.09 A Few Clouds FEW003 9 -5 37% 75.62 0.0
07 22:15 W 7 16.09 A Few Clouds FEW003 10 -5 35% 9 75.62 0.0
07 21:55 SW 7 16.09 Fair CLR 10 -5 35% 9 75.62 0.0
07 21:35 Calm 16.09 Fair CLR 10 -6 32% 75.62 0.0
07 21:15 Calm 16.09 Fair CLR 11 -5 32% 75.62 0.0
07 20:55 W 7 16.09 Fair CLR 11 -6 30% 75.59 0.0
07 20:35 W 9 16.09 Fair CLR 12 -5 30% 75.59 0.0
07 20:15 W 13 16.09 Fair CLR 13 -5 28% 75.59 0.0
07 19:55 W 15 16.09 Fair CLR 15 -7 21% 75.59 0.0
07 19:35 W 19 16.09 Fair CLR 15 -6 23% 75.59 0.0
07 19:15 NW 22 16.09 A Few Clouds FEW090 16 -7 20% 75.59 0.0
07 18:55 NW 17 16.09 A Few Clouds FEW090 16 -6 22% 75.59 0.0
07 18:35 NW 17 16.09 Fair CLR 16 -6 22% 75.59 0.0
07 18:15 W 17 G 28 16.09 A Few Clouds FEW085 16 -5 23% 75.62 0.0
07 17:55 NW 20 G 31 16.09 A Few Clouds FEW090 16 -6 22% 75.62 0.0
07 17:35 NW 15 G 33 16.09 Fair CLR 16 -6 22% 75.62 0.0
07 17:15 W 13 G 26 16.09 A Few Clouds FEW085 16 -6 22% 75.64 0.0
07 16:55 W 22 G 39 16.09 Fair CLR 16 -6 22% 75.64 0.0
07 16:35 Vrbl 11 G 35 16.09 Fair CLR 16 -6 22% 75.67 0.0
07 16:15 NW 19 G 31 16.09 A Few Clouds FEW080 16 -6 22% 75.67 0.0
07 15:55 NW 19 G 41 16.09 Fair CLR 15 -6 23% 75.67 0.0
07 15:35 NW 22 G 35 16.09 A Few Clouds FEW085 16 -6 22% 75.69 0.0
07 15:15 NW 19 G 30 16.09 Fair CLR 15 -6 23% 75.72 0.0
07 14:55 NW 30 G 43 16.09 A Few Clouds FEW075 15 -6 23% 75.72 0.0
07 14:35 W 22 G 37 16.09 Partly Cloudy SCT075 15 -5 25% 75.72 0.0
07 14:15 W 22 G 33 16.09 Partly Cloudy SCT075 15 -5 25% 75.74 0.0
07 13:55 N 20 G 33 16.09 Partly Cloudy SCT075 15 -6 23% 75.74 0.0
07 13:35 NW 22 G 33 16.09 A Few Clouds FEW075 14 -6 25% 75.77 0.0
07 13:15 NW 24 G 43 16.09 A Few Clouds FEW075 14 -5 27% 75.77 0.0
07 12:55 NW 22 16.09 A Few Clouds FEW070 13 -6 26% 75.79 0.0
07 12:35 W 24 16.09 Partly Cloudy SCT070 12 -6 28% 75.82 0.0
07 12:15 NW 17 12.87 Mostly Cloudy BKN070 12 -6 28% 75.84 0.0
Date Time (cdt) Wind (kph) Vis. (km) Weather Sky Cond. Air Dwpt Max. Min. Relative Humidity Wind Chill (°C) Heat Index (°C) altimeter (cm) sea level (mb) 1 hr 3 hr 6 hr
6 hour
Temperature (ºC) Pressure Precipitation (cm)